Time;durP1;ratioP1;P1;durP2;ratioP2;P2;SDS_P1;SDS_P2;PMS_P1;PMS_P2;Temp;Humidity;BMP_temperature;BMP_pressure;BME280_temperature;BME280_humidity;BME280_pressure;Samples;Min_cycle;Max_cycle;Signal;HPM_P1;HPM_P2
2024/04/16 00:01:45;;;;;;;2.15;1.30;;;;;;;;;;5381553;26;19997;-69
2024/04/16 00:04:10;;;;;;;5.57;1.50;;;;;;;;;;5361151;26;19997;-68
2024/04/16 00:06:36;;;;;;;1.15;0.95;;;;;;;;;;5363480;26;19993;-68
2024/04/16 00:09:01;;;;;;;1.33;1.00;;;;;;;;;;5371438;26;19996;-68
2024/04/16 00:11:27;;;;;;;1.65;1.30;;;;;;;;;;5359012;26;20003;-68
2024/04/16 00:13:52;;;;;;;2.08;1.38;;;;;;;;;;5382688;26;20007;-69
2024/04/16 00:16:17;;;;;;;2.63;1.15;;;;;;;;;;5381275;26;20004;-69
2024/04/16 00:18:43;;;;;;;1.65;1.25;;;;;;;;;;5379673;26;20454;-69
2024/04/16 00:21:08;;;;;;;1.40;1.05;;;;;;;;;;5382095;26;20011;-69
2024/04/16 00:23:33;;;;;;;1.80;1.42;;;;;;;;;;5381960;26;20010;-69
2024/04/16 00:25:58;;;;;;;5.95;1.30;;;;;;;;;;5382329;26;20521;-69
2024/04/16 00:28:24;;;;;;;1.30;1.20;;;;;;;;;;5380877;26;20004;-69
2024/04/16 00:30:49;;;;;;;1.77;1.15;;;;;;;;;;5380257;26;20076;-69
2024/04/16 00:33:15;;;;;;;8.15;1.60;;;;;;;;;;5380572;26;20074;-69
2024/04/16 00:35:43;;;;;;;1.20;1.02;;;;;;;;;;5381641;26;20004;-69
2024/04/16 00:38:11;;;;;;;1.15;1.05;;;;;;;;;;5381308;26;20000;-68
2024/04/16 00:40:36;;;;;;;3.85;1.85;;;;;;;;;;5378431;26;19997;-68
2024/04/16 00:43:14;;;;;;;3.47;1.58;;;;;;;;;;5347873;26;20007;-69
2024/04/16 00:45:41;;;;;;;4.10;1.38;;;;;;;;;;5356135;26;20001;-68
2024/04/16 00:48:07;;;;;;;2.65;1.90;;;;;;;;;;5345883;26;20455;-69
2024/04/16 00:50:32;;;;;;;3.20;1.27;;;;;;;;;;5358205;26;20330;-68
2024/04/16 00:52:58;;;;;;;4.10;1.50;;;;;;;;;;5347620;26;19989;-68
2024/04/16 00:55:23;;;;;;;3.38;1.48;;;;;;;;;;5346709;26;19997;-69
2024/04/16 00:57:48;;;;;;;1.58;1.40;;;;;;;;;;5380190;26;20004;-68
2024/04/16 01:00:14;;;;;;;2.72;1.13;;;;;;;;;;5366119;26;19997;-68
2024/04/16 01:02:39;;;;;;;2.53;1.13;;;;;;;;;;5345773;26;20487;-69
2024/04/16 01:05:04;;;;;;;3.17;1.25;;;;;;;;;;5344946;26;19997;-69
2024/04/16 01:07:31;;;;;;;2.42;1.20;;;;;;;;;;5374801;26;19992;-69
2024/04/16 01:09:56;;;;;;;2.47;1.33;;;;;;;;;;5381032;26;20067;-68
2024/04/16 01:12:21;;;;;;;7.18;1.10;;;;;;;;;;5379264;26;20044;-69
2024/04/16 01:14:46;;;;;;;2.08;1.05;;;;;;;;;;5380781;26;20476;-68
2024/04/16 01:17:12;;;;;;;2.22;1.13;;;;;;;;;;5380664;26;20000;-68
2024/04/16 01:19:37;;;;;;;3.67;1.60;;;;;;;;;;5364943;26;20005;-68
2024/04/16 01:22:02;;;;;;;3.97;1.45;;;;;;;;;;5345729;26;19993;-68
2024/04/16 01:24:28;;;;;;;7.38;1.25;;;;;;;;;;5353373;26;20004;-69
2024/04/16 01:26:53;;;;;;;1.05;0.95;;;;;;;;;;5379587;26;19992;-68
2024/04/16 01:29:18;;;;;;;3.53;1.20;;;;;;;;;;5373742;26;20400;-68
2024/04/16 01:31:44;;;;;;;4.63;1.50;;;;;;;;;;5379613;26;20003;-68
2024/04/16 01:34:09;;;;;;;3.33;1.17;;;;;;;;;;5374159;26;20000;-69
2024/04/16 01:36:34;;;;;;;4.20;1.15;;;;;;;;;;5380864;26;19992;-68
2024/04/16 01:38:59;;;;;;;1.77;1.08;;;;;;;;;;5371211;26;20011;-68
2024/04/16 01:41:25;;;;;;;2.83;1.20;;;;;;;;;;5378929;26;20099;-68
2024/04/16 01:43:50;;;;;;;2.38;1.13;;;;;;;;;;5377100;26;19996;-68
2024/04/16 01:46:15;;;;;;;3.05;1.50;;;;;;;;;;5364379;26;20004;-68
2024/04/16 01:48:40;;;;;;;3.05;1.30;;;;;;;;;;5376393;26;20434;-68
2024/04/16 01:51:06;;;;;;;2.50;1.40;;;;;;;;;;5382433;26;20000;-68
2024/04/16 01:53:31;;;;;;;4.35;1.25;;;;;;;;;;5384086;26;19993;-68
2024/04/16 01:55:59;;;;;;;2.63;1.10;;;;;;;;;;5373479;26;20000;-68
2024/04/16 01:58:24;;;;;;;2.30;1.10;;;;;;;;;;5411780;26;20000;-68
2024/04/16 02:00:57;;;;;;;2.67;1.13;;;;;;;;;;5380221;26;20099;-68
2024/04/16 02:03:23;;;;;;;4.00;1.75;;;;;;;;;;5380918;26;20004;-68
2024/04/16 02:05:48;;;;;;;3.05;1.48;;;;;;;;;;5383410;26;19992;-68
2024/04/16 02:08:13;;;;;;;3.13;1.25;;;;;;;;;;5360149;26;20005;-68
2024/04/16 02:10:38;;;;;;;4.43;1.10;;;;;;;;;;5348531;26;20140;-68
2024/04/16 02:13:04;;;;;;;4.93;1.52;;;;;;;;;;5377915;26;20000;-68
2024/04/16 02:15:29;;;;;;;3.90;1.23;;;;;;;;;;5382767;26;20000;-69
2024/04/16 02:17:54;;;;;;;2.13;1.23;;;;;;;;;;5377307;26;20071;-69
2024/04/16 02:20:20;;;;;;;1.58;1.13;;;;;;;;;;5348524;26;20000;-68
2024/04/16 02:22:45;;;;;;;2.45;1.02;;;;;;;;;;5349821;26;19996;-69
2024/04/16 02:25:11;;;;;;;8.75;1.65;;;;;;;;;;5383616;26;20461;-69
2024/04/16 02:27:36;;;;;;;2.08;1.10;;;;;;;;;;5382314;26;20055;-68
2024/04/16 02:30:02;;;;;;;3.20;1.55;;;;;;;;;;5378522;26;20386;-69
2024/04/16 02:32:27;;;;;;;2.88;1.23;;;;;;;;;;5383113;26;19988;-68
2024/04/16 02:34:52;;;;;;;4.18;1.65;;;;;;;;;;5379180;26;19997;-69
2024/04/16 02:37:18;;;;;;;1.02;0.90;;;;;;;;;;5378495;26;19996;-69
2024/04/16 02:39:43;;;;;;;4.93;1.02;;;;;;;;;;5383176;26;19993;-69
2024/04/16 02:42:08;;;;;;;0.80;0.80;;;;;;;;;;5362804;26;20491;-69
2024/04/16 02:44:35;;;;;;;1.20;0.93;;;;;;;;;;5347936;26;20032;-69
2024/04/16 02:47:01;;;;;;;1.48;1.38;;;;;;;;;;5354731;26;20052;-69
2024/04/16 02:49:26;;;;;;;3.08;1.35;;;;;;;;;;5380980;26;19989;-69
2024/04/16 02:51:51;;;;;;;2.08;1.52;;;;;;;;;;5383110;26;19992;-69
2024/04/16 02:54:16;;;;;;;2.95;1.27;;;;;;;;;;5374677;26;20032;-69
2024/04/16 02:56:42;;;;;;;1.40;1.38;;;;;;;;;;5382010;26;20028;-69
2024/04/16 02:59:08;;;;;;;1.67;1.13;;;;;;;;;;5383609;26;20510;-69
2024/04/16 03:01:33;;;;;;;2.47;1.10;;;;;;;;;;5352243;26;20099;-68
2024/04/16 03:03:58;;;;;;;4.40;1.48;;;;;;;;;;5381354;26;20010;-69
2024/04/16 03:06:23;;;;;;;2.72;1.63;;;;;;;;;;5382840;26;20093;-68
2024/04/16 03:08:52;;;;;;;2.15;1.05;;;;;;;;;;5382674;26;20074;-68
2024/04/16 03:11:17;;;;;;;3.15;1.10;;;;;;;;;;5382575;26;20302;-69
2024/04/16 03:13:45;;;;;;;1.60;1.50;;;;;;;;;;5382905;26;20000;-68
2024/04/16 03:16:10;;;;;;;1.83;1.40;;;;;;;;;;5381082;26;19996;-68
2024/04/16 03:18:35;;;;;;;1.92;1.10;;;;;;;;;;5382491;26;20426;-69
2024/04/16 03:21:01;;;;;;;4.63;1.45;;;;;;;;;;5380552;26;20007;-68
2024/04/16 03:23:26;;;;;;;1.67;1.20;;;;;;;;;;5380220;26;20344;-69
2024/04/16 03:25:52;;;;;;;1.48;1.38;;;;;;;;;;5374328;26;20014;-68
2024/04/16 03:28:17;;;;;;;3.60;1.40;;;;;;;;;;5382592;26;20011;-69
2024/04/16 03:30:42;;;;;;;4.80;1.40;;;;;;;;;;5381095;26;20073;-69
2024/04/16 03:33:07;;;;;;;1.45;1.35;;;;;;;;;;5354556;26;19992;-68
2024/04/16 03:35:33;;;;;;;2.00;1.05;;;;;;;;;;5376314;26;20071;-69
2024/04/16 03:37:58;;;;;;;3.05;1.48;;;;;;;;;;5382309;26;19992;-69
2024/04/16 03:40:23;;;;;;;3.80;1.38;;;;;;;;;;5382932;26;20070;-69
2024/04/16 03:42:49;;;;;;;1.20;1.10;;;;;;;;;;5382271;26;20410;-69
2024/04/16 03:45:14;;;;;;;4.30;1.83;;;;;;;;;;5381214;26;20024;-69
2024/04/16 03:47:39;;;;;;;3.85;1.33;;;;;;;;;;5382804;26;19989;-69
2024/04/16 03:50:05;;;;;;;2.58;1.20;;;;;;;;;;5381387;26;19988;-69
2024/04/16 03:52:30;;;;;;;4.45;1.13;;;;;;;;;;5374110;26;20015;-69
2024/04/16 03:54:56;;;;;;;3.33;1.65;;;;;;;;;;5382460;26;20090;-69
2024/04/16 03:57:21;;;;;;;1.50;1.30;;;;;;;;;;5371931;26;20020;-69
2024/04/16 04:02:30;;;;;;;3.15;1.27;;;;;;;;;;5364993;26;20011;-69
2024/04/16 04:04:55;;;;;;;8.32;1.65;;;;;;;;;;5380355;26;19992;-69
2024/04/16 04:07:20;;;;;;;3.65;2.67;;;;;;;;;;5380501;26;20543;-69
2024/04/16 04:09:47;;;;;;;3.28;1.63;;;;;;;;;;5380354;26;20073;-69
2024/04/16 04:12:12;;;;;;;4.63;1.58;;;;;;;;;;5366693;26;20067;-69
2024/04/16 04:14:38;;;;;;;3.50;1.38;;;;;;;;;;5381054;26;20000;-69
2024/04/16 04:17:03;;;;;;;7.00;2.08;;;;;;;;;;5374779;26;19997;-69
2024/04/16 04:19:28;;;;;;;3.85;1.38;;;;;;;;;;5381170;26;20012;-69
2024/04/16 04:21:54;;;;;;;2.15;1.17;;;;;;;;;;5375989;26;20489;-69
2024/04/16 04:24:19;;;;;;;2.35;1.20;;;;;;;;;;5378589;26;20209;-69
2024/04/16 04:26:45;;;;;;;2.35;1.35;;;;;;;;;;5382504;26;20003;-69
2024/04/16 04:29:10;;;;;;;2.25;1.13;;;;;;;;;;5380568;26;20007;-69
2024/04/16 04:31:35;;;;;;;1.75;1.23;;;;;;;;;;5374269;26;20000;-70
2024/04/16 04:34:01;;;;;;;8.02;1.88;;;;;;;;;;5381503;26;20374;-69
2024/04/16 04:36:26;;;;;;;5.97;1.40;;;;;;;;;;5377837;26;20046;-69
2024/04/16 04:38:52;;;;;;;3.90;1.33;;;;;;;;;;5382842;26;20446;-69
2024/04/16 04:41:17;;;;;;;2.78;1.33;;;;;;;;;;5377044;26;20018;-69
2024/04/16 04:43:42;;;;;;;2.33;1.13;;;;;;;;;;5347368;26;20088;-70
2024/04/16 04:46:08;;;;;;;2.63;1.05;;;;;;;;;;5345810;26;20012;-68
2024/04/16 04:48:33;;;;;;;2.80;0.95;;;;;;;;;;5369777;26;20340;-69
2024/04/16 04:50:58;;;;;;;0.98;0.88;;;;;;;;;;5381108;26;20008;-69
2024/04/16 04:53:23;;;;;;;1.40;1.08;;;;;;;;;;5372650;26;20012;-69
2024/04/16 04:55:49;;;;;;;1.50;1.40;;;;;;;;;;5380274;26;19992;-69
2024/04/16 04:58:14;;;;;;;3.83;1.20;;;;;;;;;;5381497;26;20442;-70
2024/04/16 05:00:39;;;;;;;2.25;1.05;;;;;;;;;;5380704;26;20041;-69
2024/04/16 05:03:05;;;;;;;1.33;1.17;;;;;;;;;;5381258;26;20032;-69
2024/04/16 05:05:31;;;;;;;4.65;1.92;;;;;;;;;;5380872;26;20038;-70
2024/04/16 05:07:56;;;;;;;21.52;9.27;;;;;;;;;;5381693;26;19996;-69
2024/04/16 05:10:24;;;;;;;18.30;9.10;;;;;;;;;;5380874;26;20024;-69
2024/04/16 05:12:49;;;;;;;21.25;11.90;;;;;;;;;;5381017;26;20003;-69
2024/04/16 05:15:14;;;;;;;3.05;1.67;;;;;;;;;;5380949;26;19992;-69
2024/04/16 05:17:39;;;;;;;8.98;3.72;;;;;;;;;;5381045;26;20011;-69
2024/04/16 05:20:05;;;;;;;5.00;3.38;;;;;;;;;;5380593;26;20024;-69
2024/04/16 05:22:30;;;;;;;12.00;5.78;;;;;;;;;;5384380;26;20032;-69
2024/04/16 05:24:56;;;;;;;11.50;6.97;;;;;;;;;;5384100;26;20014;-69
2024/04/16 05:27:21;;;;;;;7.43;4.53;;;;;;;;;;5359293;26;19993;-69
2024/04/16 05:29:46;;;;;;;5.45;4.15;;;;;;;;;;5375657;26;20008;-69
2024/04/16 05:32:13;;;;;;;12.18;9.38;;;;;;;;;;5362768;26;20028;-69
2024/04/16 05:34:39;;;;;;;9.63;5.10;;;;;;;;;;5384536;26;20008;-69
2024/04/16 05:37:04;;;;;;;5.63;3.40;;;;;;;;;;5346357;26;20069;-69
2024/04/16 05:39:29;;;;;;;15.50;4.90;;;;;;;;;;5379110;26;20346;-69
2024/04/16 05:41:54;;;;;;;3.20;2.00;;;;;;;;;;5383666;26;20069;-69
2024/04/16 05:44:20;;;;;;;1.45;1.25;;;;;;;;;;5372115;26;20004;-69
2024/04/16 05:46:45;;;;;;;2.45;1.27;;;;;;;;;;5383801;26;20024;-69
2024/04/16 05:49:10;;;;;;;1.20;1.10;;;;;;;;;;5383166;26;20115;-69
2024/04/16 05:51:35;;;;;;;3.63;1.50;;;;;;;;;;5384103;26;19999;-69
2024/04/16 05:54:03;;;;;;;3.88;1.63;;;;;;;;;;5383945;26;20052;-69
2024/04/16 05:56:28;;;;;;;7.35;3.63;;;;;;;;;;5384635;26;20004;-69
2024/04/16 05:58:53;;;;;;;6.13;2.65;;;;;;;;;;5383349;26;20318;-69
2024/04/16 06:01:19;;;;;;;29.30;13.32;;;;;;;;;;5380516;26;20498;-68
2024/04/16 06:03:44;;;;;;;9.30;5.28;;;;;;;;;;5409056;26;19992;-69
2024/04/16 06:06:10;;;;;;;8.27;3.53;;;;;;;;;;5383381;26;19996;-69
2024/04/16 06:08:35;;;;;;;5.43;2.45;;;;;;;;;;5376811;26;20348;-69
2024/04/16 06:11:01;;;;;;;25.65;9.68;;;;;;;;;;5348004;26;19996;-69
2024/04/16 06:13:26;;;;;;;3.33;1.65;;;;;;;;;;5358458;26;20005;-68
2024/04/16 06:15:51;;;;;;;14.88;5.70;;;;;;;;;;5384072;26;20024;-69
2024/04/16 06:18:17;;;;;;;6.82;3.05;;;;;;;;;;5380809;26;20029;-68
2024/04/16 06:20:42;;;;;;;5.20;1.55;;;;;;;;;;5375484;26;20000;-69
2024/04/16 06:23:08;;;;;;;3.38;1.63;;;;;;;;;;5383446;26;20116;-69
2024/04/16 06:25:36;;;;;;;4.70;1.83;;;;;;;;;;5383647;26;20368;-69
2024/04/16 06:28:01;;;;;;;3.70;1.63;;;;;;;;;;5382247;26;20000;-69
2024/04/16 06:30:27;;;;;;;4.00;1.67;;;;;;;;;;5383700;26;20033;-69
2024/04/16 06:32:52;;;;;;;3.40;2.22;;;;;;;;;;5404031;21;20386;-67
2024/04/16 06:35:17;;;;;;;2.38;2.15;;;;;;;;;;5382764;26;20622;-67
2024/04/16 06:37:42;;;;;;;16.08;6.05;;;;;;;;;;5383301;26;19992;-66
2024/04/16 06:40:08;;;;;;;10.35;4.43;;;;;;;;;;5383642;26;20007;-67
2024/04/16 06:42:36;;;;;;;11.38;5.88;;;;;;;;;;5382777;26;20418;-67
2024/04/16 06:45:02;;;;;;;13.73;6.28;;;;;;;;;;5356067;26;20012;-67
2024/04/16 06:47:28;;;;;;;19.65;7.55;;;;;;;;;;5347934;26;20012;-67
2024/04/16 06:49:53;;;;;;;17.92;7.30;;;;;;;;;;5348138;26;20028;-67
2024/04/16 06:52:18;;;;;;;4.57;3.13;;;;;;;;;;5379623;26;20000;-67
2024/04/16 06:54:44;;;;;;;12.60;5.70;;;;;;;;;;5382575;26;20338;-66
2024/04/16 06:57:09;;;;;;;5.38;2.65;;;;;;;;;;5383590;26;20014;-67
2024/04/16 06:59:34;;;;;;;14.82;4.93;;;;;;;;;;5383317;26;20388;-66
2024/04/16 07:02:00;;;;;;;4.18;2.97;;;;;;;;;;5382219;26;20000;-67
2024/04/16 07:04:25;;;;;;;14.23;5.90;;;;;;;;;;5383430;26;20007;-67
2024/04/16 07:06:50;;;;;;;10.10;3.80;;;;;;;;;;5371874;26;20003;-67
2024/04/16 07:09:16;;;;;;;28.48;10.60;;;;;;;;;;5348551;26;20401;-67
2024/04/16 07:11:41;;;;;;;9.13;3.38;;;;;;;;;;5348377;26;19992;-66
2024/04/16 07:14:06;;;;;;;2.05;1.55;;;;;;;;;;5337479;26;20008;-67
2024/04/16 07:16:32;;;;;;;13.18;4.65;;;;;;;;;;5347869;26;20001;-65
2024/04/16 07:18:57;;;;;;;3.38;1.55;;;;;;;;;;5337072;26;20009;-67
2024/04/16 07:21:22;;;;;;;2.97;1.73;;;;;;;;;;5346722;26;20346;-67
2024/04/16 07:23:47;;;;;;;1.80;1.45;;;;;;;;;;5336155;26;20014;-67
2024/04/16 07:26:13;;;;;;;2.67;1.67;;;;;;;;;;5313717;27;19994;-66
2024/04/16 07:28:38;;;;;;;2.85;1.80;;;;;;;;;;5324103;26;20457;-67
2024/04/16 07:31:04;;;;;;;2.28;1.63;;;;;;;;;;5341286;26;19997;-67
2024/04/16 07:33:30;;;;;;;2.35;1.08;;;;;;;;;;5346786;26;20114;-66
2024/04/16 07:35:56;;;;;;;1.13;1.02;;;;;;;;;;5345026;26;20001;-66
2024/04/16 07:38:21;;;;;;;1.50;1.30;;;;;;;;;;5348268;26;20346;-67
2024/04/16 07:40:54;;;;;;;1.45;1.30;;;;;;;;;;5345148;26;20011;-67
2024/04/16 07:43:19;;;;;;;1.10;1.00;;;;;;;;;;5325003;26;20019;-67
2024/04/16 07:45:44;;;;;;;1.50;1.23;;;;;;;;;;5328556;26;19998;-66
2024/04/16 07:48:10;;;;;;;1.25;1.15;;;;;;;;;;5312875;26;20023;-66
2024/04/16 07:50:35;;;;;;;3.25;1.23;;;;;;;;;;5325671;26;20350;-67
2024/04/16 07:53:00;;;;;;;2.00;1.33;;;;;;;;;;5312249;27;19994;-66
2024/04/16 07:55:25;;;;;;;1.30;1.00;;;;;;;;;;5336691;26;20445;-66
2024/04/16 07:57:51;;;;;;;3.03;1.35;;;;;;;;;;5382620;26;20064;-66
2024/04/16 08:00:16;;;;;;;1.55;1.13;;;;;;;;;;5378996;26;20493;-66
2024/04/16 08:02:41;;;;;;;1.88;1.27;;;;;;;;;;5326115;26;20014;-67
2024/04/16 08:05:06;;;;;;;3.05;1.48;;;;;;;;;;5312061;27;19998;-66
2024/04/16 08:07:32;;;;;;;4.15;1.90;;;;;;;;;;5325219;26;20097;-67
2024/04/16 08:09:59;;;;;;;1.35;1.25;;;;;;;;;;5312906;27;20042;-66
2024/04/16 08:12:24;;;;;;;4.63;1.42;;;;;;;;;;5315260;26;20001;-67
2024/04/16 08:14:49;;;;;;;1.45;1.30;;;;;;;;;;5341579;26;20038;-67
2024/04/16 08:17:16;;;;;;;1.67;1.42;;;;;;;;;;5346647;26;20371;-66
2024/04/16 08:19:41;;;;;;;1.88;1.45;;;;;;;;;;5340761;26;20008;-66
2024/04/16 08:22:06;;;;;;;1.45;1.30;;;;;;;;;;5312828;27;19997;-66
2024/04/16 08:24:32;;;;;;;1.73;1.20;;;;;;;;;;5315172;26;20405;-66
2024/04/16 08:26:57;;;;;;;3.47;1.70;;;;;;;;;;5329860;26;19993;-66
2024/04/16 08:29:22;;;;;;;1.85;1.63;;;;;;;;;;5333358;26;20037;-67
2024/04/16 08:31:48;;;;;;;2.45;1.40;;;;;;;;;;5371882;26;20037;-67
2024/04/16 08:34:13;;;;;;;1.50;1.40;;;;;;;;;;5381162;26;19996;-67
2024/04/16 08:36:38;;;;;;;1.75;1.30;;;;;;;;;;5381684;26;20067;-67
2024/04/16 08:39:03;;;;;;;1.80;1.27;;;;;;;;;;5381626;26;20014;-67
2024/04/16 08:41:29;;;;;;;2.15;1.30;;;;;;;;;;5381694;26;20477;-67
2024/04/16 08:43:54;;;;;;;2.33;1.23;;;;;;;;;;5367056;26;20044;-67
2024/04/16 08:46:20;;;;;;;2.10;1.42;;;;;;;;;;5324031;26;20007;-67
2024/04/16 08:48:46;;;;;;;2.60;1.60;;;;;;;;;;5367734;26;20462;-67
2024/04/16 08:51:13;;;;;;;1.55;1.30;;;;;;;;;;5322916;26;20327;-67
2024/04/16 08:53:40;;;;;;;1.60;1.27;;;;;;;;;;5310382;27;20003;-67
2024/04/16 08:56:06;;;;;;;1.23;1.13;;;;;;;;;;5317643;26;20462;-67
2024/04/16 08:58:32;;;;;;;2.60;1.40;;;;;;;;;;5311649;26;20074;-65
2024/04/16 09:00:57;;;;;;;2.28;1.75;;;;;;;;;;5327262;26;20002;-66
2024/04/16 09:03:25;;;;;;;1.95;1.33;;;;;;;;;;5325095;26;20466;-67
2024/04/16 09:05:50;;;;;;;2.00;1.40;;;;;;;;;;5309353;27;20066;-67
2024/04/16 09:08:15;;;;;;;1.80;1.40;;;;;;;;;;5325693;26;20009;-67
2024/04/16 09:10:43;;;;;;;2.72;1.30;;;;;;;;;;5311031;27;20033;-66
2024/04/16 09:13:12;;;;;;;1.42;1.33;;;;;;;;;;5313909;26;20351;-67
2024/04/16 09:15:37;;;;;;;1.63;1.33;;;;;;;;;;5381049;26;20011;-67
2024/04/16 09:18:03;;;;;;;3.28;1.45;;;;;;;;;;5380051;26;20442;-67
2024/04/16 09:20:28;;;;;;;1.42;1.23;;;;;;;;;;5330057;26;20068;-66
2024/04/16 09:22:54;;;;;;;1.67;1.40;;;;;;;;;;5310879;27;20074;-67
2024/04/16 09:25:21;;;;;;;2.00;1.58;;;;;;;;;;5318568;26;20041;-67
2024/04/16 09:27:51;;;;;;;1.70;1.33;;;;;;;;;;5346128;26;20486;-67
2024/04/16 09:30:16;;;;;;;1.50;1.40;;;;;;;;;;5380265;26;20000;-67
2024/04/16 09:32:44;;;;;;;2.28;1.38;;;;;;;;;;5379109;26;20000;-66
2024/04/16 09:35:10;;;;;;;1.90;1.45;;;;;;;;;;5323911;26;20004;-67
2024/04/16 09:37:35;;;;;;;3.20;1.60;;;;;;;;;;5310323;27;20005;-66
2024/04/16 09:40:00;;;;;;;2.72;1.50;;;;;;;;;;5320880;26;20001;-67
2024/04/16 09:42:27;;;;;;;2.50;1.88;;;;;;;;;;5344976;26;20405;-66
2024/04/16 09:44:52;;;;;;;5.82;1.65;;;;;;;;;;5342513;26;19994;-66
2024/04/16 09:47:17;;;;;;;5.70;2.45;;;;;;;;;;5345151;26;20012;-67
2024/04/16 09:49:43;;;;;;;4.65;1.92;;;;;;;;;;5342249;26;19994;-66
2024/04/16 09:52:11;;;;;;;4.68;2.10;;;;;;;;;;5363303;26;20012;-67
2024/04/16 09:54:37;;;;;;;3.03;1.77;;;;;;;;;;5377778;26;19996;-66
2024/04/16 09:57:03;;;;;;;3.20;1.92;;;;;;;;;;5370953;26;20008;-67
2024/04/16 09:59:29;;;;;;;2.92;2.13;;;;;;;;;;5372369;26;19993;-67
2024/04/16 10:01:55;;;;;;;3.45;2.10;;;;;;;;;;5355367;26;20074;-67
2024/04/16 10:04:21;;;;;;;4.85;2.25;;;;;;;;;;5378268;26;19996;-67
2024/04/16 10:06:47;;;;;;;3.53;2.35;;;;;;;;;;5380005;26;20011;-66
2024/04/16 10:09:17;;;;;;;3.47;2.10;;;;;;;;;;5383705;26;20000;-67
2024/04/16 10:11:44;;;;;;;4.82;2.42;;;;;;;;;;5382891;26;20010;-66
2024/04/16 10:14:09;;;;;;;5.07;2.72;;;;;;;;;;5351812;26;19996;-67
2024/04/16 10:16:34;;;;;;;7.32;2.60;;;;;;;;;;5347354;26;20007;-67
2024/04/16 10:19:04;;;;;;;3.78;2.65;;;;;;;;;;5353613;26;20004;-67
2024/04/16 10:21:37;;;;;;;5.20;2.80;;;;;;;;;;5355794;26;19989;-67
2024/04/16 10:24:06;;;;;;;7.85;2.78;;;;;;;;;;5347896;26;20033;-66
2024/04/16 10:26:36;;;;;;;9.32;2.67;;;;;;;;;;5375573;26;19992;-67
2024/04/16 10:29:01;;;;;;;6.38;2.80;;;;;;;;;;5381819;26;19993;-66
2024/04/16 10:31:33;;;;;;;5.63;2.42;;;;;;;;;;5358104;26;20447;-67
2024/04/16 10:34:01;;;;;;;5.85;2.97;;;;;;;;;;5313463;26;19998;-66
2024/04/16 10:36:27;;;;;;;6.05;3.10;;;;;;;;;;5313071;26;20366;-67
2024/04/16 10:38:52;;;;;;;4.13;2.40;;;;;;;;;;5380854;26;20000;-67
2024/04/16 10:41:25;;;;;;;7.53;2.38;;;;;;;;;;5382078;26;19996;-67
2024/04/16 10:43:52;;;;;;;9.00;3.38;;;;;;;;;;5350694;26;20017;-67
2024/04/16 10:46:19;;;;;;;4.40;3.17;;;;;;;;;;5313156;26;20001;-66
2024/04/16 10:48:45;;;;;;;3.92;2.95;;;;;;;;;;5314990;26;20008;-65
2024/04/16 10:51:11;;;;;;;4.45;3.10;;;;;;;;;;5317880;26;20005;-66
2024/04/16 10:53:37;;;;;;;8.05;3.22;;;;;;;;;;5312800;26;19994;-66
2024/04/16 10:56:02;;;;;;;6.50;3.00;;;;;;;;;;5321860;26;20521;-66
2024/04/16 10:58:29;;;;;;;12.40;2.78;;;;;;;;;;5312912;26;20004;-66
2024/04/16 11:00:54;;;;;;;5.00;2.75;;;;;;;;;;5322442;26;20000;-66
2024/04/16 11:03:19;;;;;;;9.18;2.47;;;;;;;;;;5317168;26;20416;-66
2024/04/16 11:05:45;;;;;;;3.65;2.20;;;;;;;;;;5311700;27;20008;-66
2024/04/16 11:08:10;;;;;;;9.90;2.70;;;;;;;;;;5325952;26;20435;-67
2024/04/16 11:10:35;;;;;;;8.60;2.65;;;;;;;;;;5312761;26;20012;-66
2024/04/16 11:13:01;;;;;;;5.10;2.28;;;;;;;;;;5322652;26;20291;-66
2024/04/16 11:15:33;;;;;;;6.82;2.90;;;;;;;;;;5315080;26;20447;-66
2024/04/16 11:17:58;;;;;;;4.78;2.70;;;;;;;;;;5312118;26;20455;-67
2024/04/16 11:20:24;;;;;;;5.28;2.53;;;;;;;;;;5363571;26;20012;-66
2024/04/16 11:22:50;;;;;;;5.15;2.97;;;;;;;;;;5380250;26;20008;-66
2024/04/16 11:25:18;;;;;;;5.57;2.25;;;;;;;;;;5369031;26;20415;-67
2024/04/16 11:27:44;;;;;;;8.52;2.33;;;;;;;;;;5314795;26;20068;-66
2024/04/16 11:30:12;;;;;;;4.47;2.33;;;;;;;;;;5311801;26;20014;-67
2024/04/16 11:32:38;;;;;;;6.43;2.33;;;;;;;;;;5370211;26;20341;-67
2024/04/16 11:35:12;;;;;;;5.75;2.15;;;;;;;;;;5367575;26;19996;-67
2024/04/16 11:37:38;;;;;;;4.20;2.10;;;;;;;;;;5314799;26;20021;-66
2024/04/16 11:40:07;;;;;;;6.30;2.40;;;;;;;;;;5311766;26;20013;-66
2024/04/16 11:42:32;;;;;;;4.78;2.40;;;;;;;;;;5325545;26;20008;-67
2024/04/16 11:44:59;;;;;;;2.97;2.30;;;;;;;;;;5312464;26;19997;-67
2024/04/16 11:47:24;;;;;;;5.38;2.10;;;;;;;;;;5325376;26;20074;-66
2024/04/16 11:49:50;;;;;;;4.43;1.60;;;;;;;;;;5310376;27;19998;-66
2024/04/16 11:52:15;;;;;;;6.47;1.95;;;;;;;;;;5312596;26;20004;-66
2024/04/16 11:54:41;;;;;;;3.58;1.83;;;;;;;;;;5324653;26;20075;-66
2024/04/16 11:57:06;;;;;;;7.78;2.03;;;;;;;;;;5311301;26;20462;-66
2024/04/16 11:59:31;;;;;;;3.85;2.00;;;;;;;;;;5338170;26;20008;-66
2024/04/16 12:01:57;;;;;;;5.28;2.05;;;;;;;;;;5381586;26;19996;-67
2024/04/16 12:04:22;;;;;;;9.40;2.00;;;;;;;;;;5317578;26;19998;-66
2024/04/16 12:06:47;;;;;;;5.40;1.50;;;;;;;;;;5320001;26;20009;-65
2024/04/16 12:09:12;;;;;;;3.63;2.00;;;;;;;;;;5319123;26;20008;-66
2024/04/16 12:11:38;;;;;;;3.20;1.27;;;;;;;;;;5311853;27;20038;-66
2024/04/16 12:14:03;;;;;;;4.00;1.90;;;;;;;;;;5319510;26;19997;-67
2024/04/16 12:16:30;;;;;;;5.78;1.80;;;;;;;;;;5311826;26;20069;-66
2024/04/16 12:18:56;;;;;;;3.28;1.50;;;;;;;;;;5325478;26;20342;-66
2024/04/16 12:21:21;;;;;;;6.15;2.10;;;;;;;;;;5316365;26;20005;-66
2024/04/16 12:23:47;;;;;;;2.28;1.48;;;;;;;;;;5311467;27;19998;-67
2024/04/16 12:26:13;;;;;;;7.60;1.80;;;;;;;;;;5324281;26;20009;-67
2024/04/16 12:28:38;;;;;;;7.38;2.03;;;;;;;;;;5311791;26;19997;-66
2024/04/16 12:31:03;;;;;;;5.40;2.08;;;;;;;;;;5322633;26;20469;-67
2024/04/16 12:33:29;;;;;;;3.40;1.55;;;;;;;;;;5313869;26;20013;-66
2024/04/16 12:35:54;;;;;;;2.88;1.58;;;;;;;;;;5311291;26;19998;-67
2024/04/16 12:38:19;;;;;;;8.43;1.77;;;;;;;;;;5375479;26;20000;-67
2024/04/16 12:40:46;;;;;;;3.08;1.55;;;;;;;;;;5381785;26;20004;-67
2024/04/16 12:43:11;;;;;;;2.95;1.65;;;;;;;;;;5381761;26;20000;-67
2024/04/16 12:45:37;;;;;;;7.55;1.98;;;;;;;;;;5349505;26;20007;-67
2024/04/16 12:48:03;;;;;;;3.80;1.20;;;;;;;;;;5361889;26;20028;-67
2024/04/16 12:50:28;;;;;;;4.68;1.42;;;;;;;;;;5348303;26;20001;-67
2024/04/16 12:52:54;;;;;;;4.82;1.60;;;;;;;;;;5345823;26;20096;-67
2024/04/16 12:55:19;;;;;;;3.22;1.40;;;;;;;;;;5338963;26;20343;-67
2024/04/16 12:57:44;;;;;;;5.40;3.03;;;;;;;;;;5311128;26;20009;-67
2024/04/16 13:00:11;;;;;;;3.63;1.83;;;;;;;;;;5310951;26;19990;-66
2024/04/16 13:02:37;;;;;;;5.88;1.73;;;;;;;;;;5324562;26;20030;-67
2024/04/16 13:05:02;;;;;;;5.28;1.52;;;;;;;;;;5309597;27;20321;-67
2024/04/16 13:07:27;;;;;;;4.15;1.52;;;;;;;;;;5324922;26;20000;-67
2024/04/16 13:09:53;;;;;;;4.25;1.38;;;;;;;;;;5344899;26;20024;-67
2024/04/16 13:12:18;;;;;;;3.10;1.50;;;;;;;;;;5343577;26;20371;-67
2024/04/16 13:14:43;;;;;;;2.95;1.63;;;;;;;;;;5339982;26;20446;-67
2024/04/16 13:17:08;;;;;;;5.60;1.80;;;;;;;;;;5345479;26;20003;-67
2024/04/16 13:19:35;;;;;;;3.20;1.70;;;;;;;;;;5337577;26;20002;-67
2024/04/16 13:22:00;;;;;;;5.50;1.60;;;;;;;;;;5311179;26;20030;-67
2024/04/16 13:24:25;;;;;;;2.75;1.60;;;;;;;;;;5310778;27;20001;-67
2024/04/16 13:26:52;;;;;;;4.20;2.03;;;;;;;;;;5375191;26;20000;-67
2024/04/16 13:29:17;;;;;;;5.45;1.77;;;;;;;;;;5343461;26;20474;-67
2024/04/16 13:31:42;;;;;;;3.60;1.80;;;;;;;;;;5346378;26;20008;-67
2024/04/16 13:34:08;;;;;;;4.82;1.65;;;;;;;;;;5357372;26;20453;-67
2024/04/16 13:36:33;;;;;;;5.00;1.60;;;;;;;;;;5379896;26;20474;-67
2024/04/16 13:38:58;;;;;;;5.05;1.73;;;;;;;;;;5373148;26;20106;-67
2024/04/16 13:41:24;;;;;;;4.05;1.55;;;;;;;;;;5338151;26;20443;-67
2024/04/16 13:43:49;;;;;;;3.22;1.90;;;;;;;;;;5311770;26;20017;-67
2024/04/16 13:46:14;;;;;;;3.47;1.63;;;;;;;;;;5329232;26;20012;-67
2024/04/16 13:48:40;;;;;;;2.72;1.35;;;;;;;;;;5313563;27;20030;-66
2024/04/16 13:51:05;;;;;;;5.28;1.50;;;;;;;;;;5324939;26;20032;-67
2024/04/16 13:53:30;;;;;;;3.10;1.60;;;;;;;;;;5316287;26;20022;-67
2024/04/16 13:55:57;;;;;;;3.33;1.70;;;;;;;;;;5313531;27;20018;-67
2024/04/16 13:58:22;;;;;;;3.47;1.50;;;;;;;;;;5364076;26;19996;-67
2024/04/16 14:00:48;;;;;;;2.78;2.03;;;;;;;;;;5380218;26;20453;-67
2024/04/16 14:03:13;;;;;;;3.47;1.60;;;;;;;;;;5342125;26;20001;-67
2024/04/16 14:05:39;;;;;;;3.70;1.48;;;;;;;;;;5347964;26;20008;-67
2024/04/16 14:08:04;;;;;;;3.78;1.45;;;;;;;;;;5333444;26;20013;-67
2024/04/16 14:10:29;;;;;;;2.58;1.58;;;;;;;;;;5313409;26;20037;-67
2024/04/16 14:12:55;;;;;;;2.50;1.40;;;;;;;;;;5320701;26;20102;-66
2024/04/16 14:15:21;;;;;;;1.95;1.48;;;;;;;;;;5341577;26;20001;-67
2024/04/16 14:17:47;;;;;;;1.92;1.30;;;;;;;;;;5347602;26;20008;-67
2024/04/16 14:20:13;;;;;;;5.15;1.75;;;;;;;;;;5366644;26;19997;-67
2024/04/16 14:22:38;;;;;;;2.10;1.42;;;;;;;;;;5383201;26;20011;-67
2024/04/16 14:25:04;;;;;;;2.05;1.40;;;;;;;;;;5366569;26;20041;-67
2024/04/16 14:27:29;;;;;;;3.90;1.52;;;;;;;;;;5315651;26;20352;-67
2024/04/16 14:29:54;;;;;;;3.63;1.67;;;;;;;;;;5312670;27;20482;-67
2024/04/16 14:32:20;;;;;;;5.15;2.22;;;;;;;;;;5339385;26;20069;-67
2024/04/16 14:34:45;;;;;;;5.78;2.25;;;;;;;;;;5348401;26;20033;-67
2024/04/16 14:37:10;;;;;;;6.65;1.92;;;;;;;;;;5375843;26;19997;-67